Impacts TAF Board INFO
FOR SITUATIONAL AWARENESS. NOT TO BE USED FOR FLIGHT PLANNING PURPOSES.
IDs:

KPDX - Portland Intl Arpt, OR, US

Issued at 0520 UTC 13 Dec 2017
Updated at 0532 UTC 13 Dec 2017
Potential Impact None Slight Moderate High
Time0453Z 13/06Z 13/07Z 13/08Z 13/09Z 13/10Z 13/11Z 13/12Z 13/13Z 13/14Z 13/15Z 13/16Z 13/17Z 13/18Z>>
Type OBS PRVL PRVL PRVL PRVL PRVL PRVL PRVL PRVL PRVL PRVL PRVL PRVL PRVL
VIS 10 >6 >6 >6 >6 >6 >6 >6 >6 >6 >6 >6 >6 >6
CIG 75 -- -- -- -- -- -- -- -- -- -- -- -- --
Cover BKN SCT SCT SCT SCT SCT SCT FEW FEW FEW FEW FEW FEW FEW
FltCat VFR VFR VFR VFR VFR VFR VFR VFR VFR VFR VFR VFR VFR VFR
WX -- -- -- -- -- -- -- -- -- -- -- -- -- --
WDir 130 130 130 130 130 130 130 VRB VRB VRB VRB VRB VRB VRB
WSpd 8 5 5 5 5 5 5 3 3 3 3 3 3 3
WGst -- -- -- -- -- -- -- -- -- -- -- -- -- --

Raw TAF
KPDX 130520Z 1306/1406 13005KT P6SM SCT250
  FM131200 VRB03KT P6SM FEW250
  FM132000 10010KT P6SM SCT250


Raw METAR
KPDX 130453Z 13008KT 10SM BKN075 BKN140 03/M03 A3039 RMK AO2 SLP292 T00331028
KPDX 130353Z 13004KT 10SM BKN075 BKN140 03/M02 A3039 RMK AO2 SLP292 T00281022
KPDX 130253Z 13003KT 10SM SCT075 SCT140 BKN250 02/M02 A3040 RMK AO2 SLP294 T00221022 56009

METAR Board
Radar Display
Forecast Discussion

FOR SITUATIONAL AWARENESS. NOT TO BE USED FOR FLIGHT PLANNING PURPOSES.